createdAt,value
2018-05-17T00:00:37.708Z,97331.65
2018-05-17T00:03:05.267Z,97333.31
2018-05-17T00:05:32.782Z,97329.66
2018-05-17T00:08:00.337Z,97337.66
2018-05-17T00:10:27.878Z,97339.68
2018-05-17T00:12:55.383Z,97333.98
2018-05-17T00:15:22.942Z,97337.03
2018-05-17T00:17:50.494Z,97338.42
2018-05-17T00:20:18.008Z,97336.06
2018-05-17T00:22:45.553Z,97333.31
2018-05-17T00:25:13.059Z,97323.65
2018-05-17T00:27:40.610Z,97327.74
2018-05-17T00:30:08.148Z,97327.14
2018-05-17T00:32:35.735Z,97319.30
2018-05-17T00:35:03.251Z,97316.06
2018-05-17T00:37:30.790Z,97321.01
2018-05-17T00:39:58.312Z,97111.59
2018-05-17T00:42:25.852Z,97320.78
2018-05-17T00:44:53.392Z,97315.72
2018-05-17T00:47:20.945Z,97316.44
2018-05-17T00:49:48.461Z,97316.72
2018-05-17T00:52:15.998Z,97311.69
2018-05-17T00:54:43.555Z,97316.34
2018-05-17T00:57:11.093Z,97320.03
2018-05-17T00:59:38.632Z,97315.15
2018-05-17T01:02:06.172Z,97310.02
2018-05-17T01:04:33.702Z,97313.38
2018-05-17T01:07:01.244Z,97314.36
2018-05-17T01:09:28.766Z,97312.63
2018-05-17T01:11:56.342Z,97310.96
2018-05-17T01:14:23.885Z,97313.20
2018-05-17T01:16:51.390Z,97305.55
2018-05-17T01:19:18.916Z,97306.52
2018-05-17T01:21:46.453Z,97305.23
2018-05-17T01:24:13.992Z,97301.30
2018-05-17T01:26:41.523Z,97307.66
2018-05-17T01:29:09.045Z,97299.50
2018-05-17T01:31:36.606Z,97301.98
2018-05-17T01:34:04.115Z,97298.77
2018-05-17T01:36:31.633Z,97308.63
2018-05-17T01:38:59.170Z,97304.47
2018-05-17T01:41:27.306Z,97304.38
2018-05-17T01:43:54.839Z,97305.22
2018-05-17T01:46:22.354Z,97310.04
2018-05-17T01:48:49.893Z,97309.53
2018-05-17T01:51:17.443Z,97306.34
2018-05-17T01:53:44.997Z,97307.27
2018-05-17T01:56:12.649Z,97306.98
2018-05-17T01:58:40.175Z,97307.36
2018-05-17T02:01:07.724Z,97304.30
2018-05-17T02:03:35.261Z,97303.68
2018-05-17T02:06:02.762Z,97301.48
2018-05-17T02:08:30.304Z,97301.69
2018-05-17T02:10:57.831Z,97305.72
2018-05-17T02:13:25.350Z,97302.63
2018-05-17T02:15:52.887Z,97309.84
2018-05-17T02:18:20.422Z,97307.22
2018-05-17T02:20:47.974Z,97311.88
2018-05-17T02:23:15.465Z,97270.88
2018-05-17T02:25:42.991Z,97307.22
2018-05-17T02:28:10.543Z,97311.37
2018-05-17T02:30:38.053Z,97307.95
2018-05-17T02:33:05.578Z,97317.30
2018-05-17T02:35:33.098Z,97310.97
2018-05-17T02:38:00.606Z,97303.32
2018-05-17T02:40:28.198Z,97310.87
2018-05-17T02:42:55.695Z,97317.67
2018-05-17T02:45:23.226Z,97313.34
2018-05-17T02:47:50.737Z,97312.26
2018-05-17T02:50:18.241Z,97315.85
2018-05-17T02:52:45.832Z,97312.52
2018-05-17T02:55:13.380Z,97313.88
2018-05-17T02:57:40.930Z,97313.44
2018-05-17T03:00:08.442Z,97314.19
2018-05-17T03:02:35.969Z,97313.77
2018-05-17T03:05:03.507Z,97316.58
2018-05-17T03:07:31.119Z,97323.24
2018-05-17T03:09:58.650Z,97318.90
2018-05-17T03:12:26.167Z,97322.95
2018-05-17T03:14:53.680Z,97323.02
2018-05-17T03:17:21.216Z,97320.88
2018-05-17T03:19:48.718Z,97323.83
2018-05-17T03:22:16.254Z,97318.23
2018-05-17T03:24:43.768Z,97314.27
2018-05-17T03:27:11.313Z,97324.79
2018-05-17T03:29:38.825Z,97322.98
2018-05-17T03:32:06.321Z,97328.01
2018-05-17T03:34:33.907Z,97324.70
2018-05-17T03:37:01.416Z,97324.52
2018-05-17T03:39:28.939Z,97316.39
2018-05-17T03:41:56.527Z,97327.06
2018-05-17T03:44:24.067Z,97329.20
2018-05-17T03:46:51.611Z,97326.31
2018-05-17T03:49:19.151Z,97332.63
2018-05-17T03:51:46.649Z,97329.02
2018-05-17T03:54:14.186Z,97337.05
2018-05-17T03:56:41.701Z,97338.02
2018-05-17T03:59:09.245Z,97340.73
2018-05-17T04:04:50.359Z,97345.18
2018-05-17T04:07:17.918Z,97342.76
2018-05-17T04:09:45.438Z,97341.84
2018-05-17T04:12:13.014Z,97336.80
2018-05-17T04:14:40.527Z,97334.55
2018-05-17T04:17:08.088Z,97335.08
2018-05-17T04:19:35.606Z,97342.63
2018-05-17T04:22:03.121Z,97338.10
2018-05-17T04:24:30.715Z,97338.45
2018-05-17T04:26:58.247Z,97338.22
2018-05-17T04:29:25.798Z,97337.06
2018-05-17T04:31:53.318Z,97336.44
2018-05-17T04:34:20.833Z,97335.50
2018-05-17T04:36:48.361Z,97338.05
2018-05-17T04:39:15.877Z,97349.20
2018-05-17T04:41:43.405Z,97354.85
2018-05-17T04:44:10.995Z,97358.58
2018-05-17T04:46:38.534Z,97355.05
2018-05-17T04:49:06.079Z,97354.92
2018-05-17T04:51:33.667Z,97350.60
2018-05-17T04:54:01.161Z,97348.65
2018-05-17T04:56:28.690Z,97350.81
2018-05-17T04:58:56.203Z,97355.73
2018-05-17T05:01:23.735Z,97353.55
2018-05-17T05:03:51.263Z,97354.81
2018-05-17T05:06:18.806Z,97365.94
2018-05-17T05:08:46.317Z,97362.09
2018-05-17T05:11:13.838Z,97363.51
2018-05-17T05:13:41.367Z,97367.30
2018-05-17T05:16:08.889Z,97374.03
2018-05-17T05:18:36.434Z,97382.06
2018-05-17T05:21:03.934Z,97375.83
2018-05-17T05:23:31.450Z,97356.27
2018-05-17T05:25:59.011Z,97381.22
2018-05-17T05:28:26.508Z,97377.63
2018-05-17T05:30:54.080Z,97372.84
2018-05-17T05:33:21.637Z,97381.06
2018-05-17T05:35:49.157Z,97380.59
2018-05-17T05:38:16.743Z,97379.70
2018-05-17T05:40:44.258Z,97379.01
2018-05-17T05:43:11.771Z,97378.63
2018-05-17T05:45:39.386Z,97377.95
2018-05-17T05:48:06.931Z,97375.22
2018-05-17T05:50:34.455Z,97377.68
2018-05-17T05:53:02.002Z,97383.05
2018-05-17T05:55:29.522Z,97384.46
2018-05-17T05:57:57.019Z,97380.98
2018-05-17T06:00:24.555Z,97378.19
2018-05-17T06:02:52.087Z,97384.04
2018-05-17T06:05:19.678Z,97384.06
2018-05-17T06:07:47.235Z,97389.59
2018-05-17T06:10:14.819Z,97391.34
2018-05-17T06:12:42.468Z,97390.77
2018-05-17T06:15:10.001Z,97384.86
2018-05-17T06:17:37.562Z,97387.13
2018-05-17T06:20:05.116Z,97390.02
2018-05-17T06:22:32.633Z,97389.55
2018-05-17T06:25:00.167Z,97393.66
2018-05-17T06:27:27.670Z,97396.48
2018-05-17T06:29:55.200Z,97399.72
2018-05-17T06:32:22.716Z,97406.36
2018-05-17T06:34:50.250Z,97408.45
2018-05-17T06:37:17.813Z,97401.47
2018-05-17T06:39:45.331Z,97401.65
2018-05-17T06:42:12.883Z,97397.69
2018-05-17T06:44:40.457Z,97400.82
2018-05-17T06:47:07.955Z,97399.05
2018-05-17T06:49:35.546Z,97401.17
2018-05-17T06:52:03.086Z,97400.55
2018-05-17T06:54:30.681Z,97397.82
2018-05-17T06:56:58.312Z,97399.55
2018-05-17T06:59:25.835Z,97403.70
2018-05-17T07:01:53.451Z,97399.58
2018-05-17T07:04:20.965Z,97398.81
2018-05-17T07:06:48.519Z,97399.78
2018-05-17T07:09:16.033Z,97399.32
2018-05-17T07:11:43.548Z,97406.03
2018-05-17T07:14:11.069Z,97410.53
2018-05-17T07:16:38.940Z,97415.77
2018-05-17T07:19:06.506Z,97418.06
2018-05-17T07:21:34.265Z,97407.91
2018-05-17T07:24:01.852Z,97410.82
2018-05-17T07:26:29.391Z,97409.53
2018-05-17T07:28:56.921Z,97410.72
2018-05-17T07:31:24.560Z,97407.31
2018-05-17T07:33:52.110Z,97407.74
2018-05-17T07:36:19.699Z,97410.89
2018-05-17T07:38:47.553Z,97412.44
2018-05-17T07:41:15.173Z,97411.86
2018-05-17T07:43:42.773Z,97413.53
2018-05-17T07:46:10.350Z,97413.24
2018-05-17T07:48:37.885Z,97414.14
2018-05-17T07:51:05.412Z,97409.06
2018-05-17T07:53:32.908Z,97412.75
2018-05-17T07:56:00.425Z,97414.72
2018-05-17T07:58:27.937Z,97387.70
2018-05-17T08:00:55.438Z,97411.53
2018-05-17T08:03:22.970Z,97414.94
2018-05-17T08:05:50.477Z,97414.77
2018-05-17T08:08:17.988Z,97407.52
2018-05-17T08:10:45.490Z,97412.75
2018-05-17T08:13:12.985Z,97418.50
2018-05-17T08:15:40.493Z,97425.05
2018-05-17T08:18:07.977Z,97418.64
2018-05-17T08:20:35.501Z,97424.84
2018-05-17T08:23:02.998Z,97424.92
2018-05-17T08:25:30.492Z,97425.05
2018-05-17T08:27:58.030Z,97418.86
2018-05-17T08:30:26.422Z,97420.11
2018-05-17T08:32:53.942Z,97425.25
2018-05-17T08:35:21.437Z,97430.22
2018-05-17T08:37:48.936Z,97428.61
2018-05-17T08:40:16.507Z,97428.22
2018-05-17T08:42:44.074Z,97430.21
2018-05-17T08:45:11.540Z,97429.69
2018-05-17T08:47:39.034Z,97434.51
2018-05-17T08:50:06.526Z,97437.17
2018-05-17T08:52:34.038Z,97441.44
2018-05-17T08:55:01.539Z,97435.07
2018-05-17T08:57:29.070Z,97435.39
2018-05-17T08:59:56.575Z,97433.01
2018-05-17T09:02:24.240Z,97452.47
2018-05-17T09:04:51.758Z,97428.80
2018-05-17T09:07:19.263Z,97432.37
2018-05-17T09:09:46.780Z,97435.73
2018-05-17T09:12:14.795Z,97436.34
2018-05-17T09:14:42.308Z,97430.36
2018-05-17T09:17:09.817Z,97422.48
2018-05-17T09:19:37.308Z,97425.83
2018-05-17T09:22:04.830Z,97418.01
2018-05-17T09:24:32.326Z,97421.77
2018-05-17T09:26:59.835Z,97425.36
2018-05-17T09:29:27.359Z,97424.23
2018-05-17T09:31:54.867Z,97429.39
2018-05-17T09:34:22.385Z,97428.98
2018-05-17T09:36:49.882Z,97418.42
2018-05-17T09:39:17.404Z,97417.33
2018-05-17T09:41:44.930Z,97413.81
2018-05-17T09:44:12.423Z,97408.47
2018-05-17T09:46:39.955Z,97418.44
2018-05-17T09:49:07.453Z,97427.28
2018-05-17T09:51:34.945Z,97428.91
2018-05-17T09:54:02.462Z,97437.30
2018-05-17T09:56:29.955Z,97433.16
2018-05-17T09:58:57.490Z,97430.69
2018-05-17T10:01:24.993Z,97431.20
2018-05-17T10:03:52.482Z,97425.57
2018-05-17T10:06:20.048Z,97434.88
2018-05-17T10:08:47.534Z,97438.28
2018-05-17T10:11:15.073Z,97427.44
2018-05-17T10:13:42.572Z,97438.69
2018-05-17T10:16:10.075Z,97434.61
2018-05-17T10:18:37.603Z,97441.95
2018-05-17T10:21:05.088Z,97437.45
2018-05-17T10:23:32.611Z,97434.17
2018-05-17T10:26:00.106Z,97432.00
2018-05-17T10:28:27.597Z,97430.02
2018-05-17T10:30:55.111Z,97425.87
2018-05-17T10:33:22.619Z,97436.27
2018-05-17T10:35:50.134Z,97441.62
2018-05-17T10:38:17.627Z,97445.59
2018-05-17T10:40:45.130Z,97436.16
2018-05-17T10:43:12.652Z,97440.93
2018-05-17T10:45:40.145Z,97434.01
2018-05-17T10:48:07.667Z,97439.66
2018-05-17T10:50:35.170Z,97452.25
2018-05-17T10:53:02.685Z,97450.32
2018-05-17T10:55:31.122Z,97455.72
2018-05-17T10:57:58.623Z,97466.69
2018-05-17T11:00:26.141Z,97461.06
2018-05-17T11:02:54.558Z,97453.30
2018-05-17T11:05:22.051Z,97454.64
2018-05-17T11:07:49.575Z,97458.98
2018-05-17T11:10:17.074Z,97465.47
2018-05-17T11:12:45.553Z,97466.58
2018-05-17T11:15:13.094Z,97469.42
2018-05-17T11:17:40.553Z,97470.83
2018-05-17T11:20:08.079Z,97466.47
2018-05-17T11:22:35.577Z,97471.55
2018-05-17T11:25:03.098Z,97465.14
2018-05-17T11:27:30.595Z,97474.53
2018-05-17T11:29:58.086Z,97472.92
2018-05-17T11:32:25.601Z,97476.03
2018-05-17T11:34:53.109Z,97472.58
2018-05-17T11:37:20.626Z,97469.69
2018-05-17T11:39:48.117Z,97467.15
2018-05-17T11:42:15.641Z,97459.74
2018-05-17T11:44:43.162Z,97465.38
2018-05-17T11:47:10.658Z,97459.02
2018-05-17T11:49:38.181Z,97455.01
2018-05-17T11:52:05.677Z,97452.91
2018-05-17T11:54:33.160Z,97447.13
2018-05-17T11:57:00.678Z,97451.66
2018-05-17T11:59:28.172Z,97456.39
2018-05-17T12:01:55.694Z,97458.28
2018-05-17T12:04:23.191Z,97445.80
2018-05-17T12:06:50.697Z,97451.44
2018-05-17T12:09:18.208Z,97451.95
2018-05-17T12:11:45.781Z,97446.17
2018-05-17T12:14:13.339Z,97447.55
2018-05-17T12:16:41.734Z,97427.80
2018-05-17T12:19:09.398Z,97446.55
2018-05-17T12:21:36.909Z,97448.37
2018-05-17T12:24:04.410Z,97447.84
2018-05-17T12:26:31.949Z,97446.31
2018-05-17T12:28:59.446Z,97454.14
2018-05-17T12:31:26.944Z,97455.39
2018-05-17T12:33:54.469Z,97460.97
2018-05-17T12:36:21.969Z,97461.32
2018-05-17T12:38:49.513Z,97454.18
2018-05-17T12:41:17.042Z,97458.41
2018-05-17T12:43:45.555Z,97455.48
2018-05-17T12:46:13.071Z,97452.31
2018-05-17T12:48:40.587Z,97452.86
2018-05-17T12:51:08.145Z,97436.84
2018-05-17T12:53:35.671Z,97438.28
2018-05-17T12:56:03.171Z,97435.13
2018-05-17T12:58:30.730Z,97435.44
2018-05-17T13:03:32.330Z,97432.44
2018-05-17T13:05:59.899Z,97424.80
2018-05-17T13:08:27.401Z,97430.41
2018-05-17T13:10:54.926Z,97436.16
2018-05-17T13:13:22.423Z,97430.33
2018-05-17T13:15:50.919Z,97438.25
2018-05-17T13:18:18.418Z,97437.41
2018-05-17T13:20:45.913Z,97436.91
2018-05-17T13:23:13.427Z,97433.19
2018-05-17T13:25:40.933Z,97440.50
2018-05-17T13:28:08.454Z,97433.59
2018-05-17T13:30:35.947Z,97436.19
2018-05-17T13:33:03.446Z,97438.11
2018-05-17T13:35:30.965Z,97430.77
2018-05-17T13:37:58.458Z,97430.41
2018-05-17T13:40:25.986Z,97434.56
2018-05-17T13:42:53.487Z,97439.44
2018-05-17T13:45:20.983Z,97433.33
2018-05-17T13:47:48.626Z,97448.39
2018-05-17T13:50:16.085Z,97447.70
2018-05-17T13:52:43.618Z,97436.52
2018-05-17T13:55:11.125Z,97446.11
2018-05-17T13:57:39.230Z,97444.31
2018-05-17T14:00:06.756Z,97448.91
2018-05-17T14:02:34.435Z,97442.19
2018-05-17T14:05:01.805Z,97439.61
2018-05-17T14:07:29.296Z,97421.48
2018-05-17T14:09:56.797Z,97446.91
2018-05-17T14:12:24.324Z,97446.61
2018-05-17T14:14:51.813Z,97445.38
2018-05-17T14:17:19.329Z,97448.02
2018-05-17T14:19:46.822Z,97447.66
2018-05-17T14:22:14.321Z,97444.89
2018-05-17T14:24:41.843Z,97442.69
2018-05-17T14:27:09.350Z,97445.73
2018-05-17T14:29:36.877Z,97452.45
2018-05-17T14:32:04.389Z,97451.38
2018-05-17T14:34:31.880Z,97452.66
2018-05-17T14:36:59.413Z,97454.73
2018-05-17T14:39:26.912Z,97464.39
2018-05-17T14:41:54.433Z,97465.70
2018-05-17T14:44:21.925Z,97461.81
2018-05-17T14:46:49.435Z,97455.42
2018-05-17T14:49:16.953Z,97450.85
2018-05-17T14:51:44.453Z,97466.17
2018-05-17T14:54:11.973Z,97465.92
2018-05-17T14:56:39.467Z,97467.45
2018-05-17T18:58:01.214Z,97586.95
2018-05-17T19:00:28.746Z,97590.83
2018-05-17T19:02:56.246Z,97597.30
2018-05-17T19:05:23.743Z,97596.45
2018-05-17T19:07:51.257Z,97604.73
2018-05-17T19:10:19.008Z,97611.48
2018-05-17T19:12:46.658Z,97607.44
2018-05-17T19:15:14.162Z,97617.05
2018-05-17T19:17:41.655Z,97624.34
2018-05-17T19:20:09.177Z,97616.33
2018-05-17T19:22:36.682Z,97626.36
2018-05-17T19:25:04.212Z,97627.58
2018-05-17T19:27:31.748Z,97638.20
2018-05-17T19:29:59.257Z,97635.31
2018-05-17T19:32:26.888Z,97628.65
2018-05-17T19:34:54.516Z,97631.22
2018-05-17T19:37:22.060Z,97638.08
2018-05-17T19:39:49.576Z,97636.94
2018-05-17T19:42:17.075Z,97645.37
2018-05-17T19:44:44.603Z,97651.06
2018-05-17T19:47:12.173Z,97654.16
2018-05-17T19:49:39.751Z,97653.98
2018-05-17T19:52:07.240Z,97660.49
2018-05-17T19:54:34.750Z,97666.94
2018-05-17T19:57:02.266Z,97670.77
2018-05-17T19:59:29.785Z,97662.80
2018-05-17T20:01:57.319Z,97669.18
2018-05-17T20:04:24.833Z,97676.00
2018-05-17T20:06:52.342Z,97669.63
2018-05-17T20:09:19.868Z,97674.17
2018-05-17T20:11:47.379Z,97678.93
2018-05-17T20:14:14.908Z,97680.65
2018-05-17T20:16:42.453Z,97689.42
2018-05-17T20:19:10.002Z,97689.03
2018-05-17T20:21:37.513Z,97662.63
2018-05-17T20:24:05.046Z,97683.23
2018-05-17T20:26:32.559Z,97674.38
2018-05-17T20:29:00.061Z,97690.58
2018-05-17T20:31:27.580Z,97694.00
2018-05-17T20:33:55.142Z,97694.48
2018-05-17T20:36:22.702Z,97696.28
2018-05-17T20:38:50.478Z,97698.40
2018-05-17T20:41:18.039Z,97700.67
2018-05-17T20:43:45.591Z,97701.64
2018-05-17T20:46:13.145Z,97701.71
2018-05-17T20:48:40.688Z,97702.66
2018-05-17T20:51:08.267Z,97706.98
2018-05-17T20:53:35.809Z,97710.41
2018-05-17T20:56:03.377Z,97713.97
2018-05-17T20:58:33.497Z,97717.22
2018-05-17T21:01:01.073Z,97721.25
2018-05-17T21:03:28.598Z,97716.45
2018-05-17T21:05:56.162Z,97715.41
2018-05-17T21:08:24.141Z,97716.44
2018-05-17T21:10:51.701Z,97720.31
2018-05-17T21:13:19.227Z,97718.41
2018-05-17T21:15:46.785Z,97718.20
2018-05-17T21:18:14.308Z,97713.47
2018-05-17T21:20:41.832Z,97709.59
2018-05-17T21:23:09.388Z,97706.97
2018-05-17T21:25:36.934Z,97705.41
2018-05-17T21:28:04.557Z,97705.66
2018-05-17T21:30:32.078Z,97701.61
2018-05-17T21:32:59.671Z,97707.17
2018-05-17T21:35:27.264Z,97706.81
2018-05-17T21:37:54.797Z,97705.16
2018-05-17T21:40:22.407Z,97708.67
2018-05-17T21:42:49.937Z,97700.50
2018-05-17T21:45:17.673Z,97700.23
2018-05-17T21:47:45.269Z,97706.70
2018-05-17T21:50:12.814Z,97714.84
2018-05-17T21:52:40.383Z,97717.06
2018-05-17T21:55:07.932Z,97716.05
2018-05-17T21:57:35.484Z,97711.55
2018-05-17T22:00:03.029Z,97713.22
2018-05-17T22:02:30.637Z,97708.48
2018-05-17T22:04:58.226Z,97709.64
2018-05-17T22:07:25.798Z,97708.18
2018-05-17T22:09:53.347Z,97710.60
2018-05-17T22:12:20.927Z,97713.33
2018-05-17T22:14:48.462Z,97709.23
2018-05-17T22:17:16.007Z,97714.07
2018-05-17T22:19:43.579Z,97707.13
2018-05-17T22:22:12.185Z,97712.88
2018-05-17T22:24:39.763Z,97710.93
2018-05-17T22:27:07.351Z,97708.58
2018-05-17T22:29:34.946Z,97711.38
2018-05-17T22:32:02.493Z,97717.46
2018-05-17T22:34:30.082Z,97720.22
2018-05-17T22:36:57.650Z,97703.48
2018-05-17T22:39:25.207Z,97717.72
2018-05-17T22:41:52.818Z,97723.44
2018-05-17T22:44:20.377Z,97723.97
2018-05-17T22:46:47.918Z,97720.80
2018-05-17T22:49:16.533Z,97720.59
2018-05-17T22:51:44.116Z,97719.67
2018-05-17T22:54:13.382Z,97719.12
2018-05-17T22:56:52.789Z,97715.09
2018-05-17T22:59:20.364Z,97719.44
2018-05-17T23:01:47.913Z,97721.34
2018-05-17T23:04:15.447Z,97723.27
2018-05-17T23:06:43.049Z,97721.95
2018-05-17T23:09:10.595Z,97724.36
2018-05-17T23:11:38.112Z,97720.22
2018-05-17T23:14:06.127Z,97723.56
2018-05-17T23:16:33.666Z,97724.94
2018-05-17T23:19:01.203Z,97719.80
2018-05-17T23:21:28.759Z,97717.06
2018-05-17T23:23:56.347Z,97720.73
2018-05-17T23:26:24.557Z,97719.70
2018-05-17T23:28:52.724Z,97712.08
2018-05-17T23:31:20.289Z,97715.16
2018-05-17T23:33:47.841Z,97714.91
2018-05-17T23:36:15.418Z,97712.11
2018-05-17T23:38:42.965Z,97715.74
2018-05-17T23:41:22.221Z,97708.84
2018-05-17T23:43:49.770Z,97678.49
2018-05-17T23:46:17.313Z,97711.25
2018-05-17T23:48:44.857Z,97712.80
2018-05-17T23:51:12.389Z,97713.95
2018-05-17T23:53:39.939Z,97712.06
2018-05-17T23:56:07.479Z,97709.52
2018-05-17T23:58:35.035Z,97710.22
